createdAt,value
2017-05-31T00:01:58.529Z,16.50
2017-05-31T00:04:26.772Z,16.40
2017-05-31T00:06:54.988Z,16.40
2017-05-31T00:09:23.254Z,16.40
2017-05-31T00:11:51.530Z,16.50
2017-05-31T00:14:19.771Z,16.50
2017-05-31T00:16:47.999Z,16.40
2017-05-31T00:19:16.209Z,16.40
2017-05-31T00:21:44.539Z,16.40
2017-05-31T00:24:12.803Z,16.30
2017-05-31T00:26:41.091Z,16.20
2017-05-31T00:29:09.307Z,16.10
2017-05-31T00:31:37.539Z,16.10
2017-05-31T00:34:05.755Z,16.20
2017-05-31T00:36:33.990Z,16.20
2017-05-31T00:39:02.207Z,16.10
2017-05-31T00:41:30.429Z,16.10
2017-05-31T00:43:58.656Z,16.00
2017-05-31T00:46:26.983Z,16.00
2017-05-31T00:48:55.187Z,16.00
2017-05-31T00:51:23.423Z,15.90
2017-05-31T00:53:51.703Z,16.00
2017-05-31T00:56:19.944Z,16.00
2017-05-31T00:58:48.353Z,16.00
2017-05-31T01:01:16.555Z,16.00
2017-05-31T01:03:44.785Z,16.00
2017-05-31T01:06:12.994Z,16.00
2017-05-31T01:08:41.227Z,16.00
2017-05-31T01:11:09.439Z,16.00
2017-05-31T01:13:37.657Z,16.00
2017-05-31T01:16:05.871Z,16.00
2017-05-31T01:18:34.087Z,16.10
2017-05-31T01:21:02.307Z,16.00
2017-05-31T01:23:30.524Z,16.10
2017-05-31T01:25:58.788Z,16.10
2017-05-31T01:28:27.024Z,16.10
2017-05-31T01:30:55.226Z,16.00
2017-05-31T01:33:23.503Z,16.10
2017-05-31T01:35:51.767Z,16.10
2017-05-31T01:38:20.050Z,16.10
2017-05-31T01:40:48.335Z,16.20
2017-05-31T01:43:16.609Z,16.10
2017-05-31T01:45:44.821Z,16.10
2017-05-31T01:48:13.151Z,16.10
2017-05-31T01:50:41.423Z,16.10
2017-05-31T01:53:09.712Z,16.10
2017-05-31T01:55:38.075Z,16.10
2017-05-31T01:58:06.299Z,16.10
2017-05-31T02:00:34.523Z,16.10
2017-05-31T02:03:02.802Z,16.00
2017-05-31T02:05:31.073Z,16.00
2017-05-31T02:07:59.295Z,16.00
2017-05-31T02:10:27.521Z,16.00
2017-05-31T02:12:55.808Z,15.90
2017-05-31T02:15:24.018Z,15.90
2017-05-31T02:17:52.256Z,15.90
2017-05-31T02:20:20.519Z,15.80
2017-05-31T02:22:48.726Z,15.80
2017-05-31T02:25:16.939Z,15.80
2017-05-31T02:27:45.184Z,15.80
2017-05-31T02:30:13.395Z,15.80
2017-05-31T02:32:41.700Z,15.80
2017-05-31T02:35:09.971Z,15.80
2017-05-31T02:37:38.224Z,15.90
2017-05-31T02:40:06.434Z,15.80
2017-05-31T02:42:34.769Z,15.80
2017-05-31T02:45:02.984Z,15.80
2017-05-31T02:47:31.249Z,15.90
2017-05-31T02:49:59.487Z,15.90
2017-05-31T02:52:27.803Z,15.80
2017-05-31T02:54:56.074Z,15.80
2017-05-31T02:57:24.351Z,15.80
2017-05-31T02:59:52.555Z,15.80
2017-05-31T03:02:20.798Z,15.80
2017-05-31T03:04:49.010Z,15.80
2017-05-31T03:07:17.212Z,15.80
2017-05-31T03:09:45.454Z,15.80
2017-05-31T03:12:13.688Z,15.80
2017-05-31T03:14:41.971Z,15.80
2017-05-31T03:17:10.200Z,15.80
2017-05-31T03:19:38.433Z,15.70
2017-05-31T03:22:06.656Z,15.80
2017-05-31T03:24:34.864Z,15.80
2017-05-31T03:27:03.082Z,15.80
2017-05-31T03:29:31.307Z,15.80
2017-05-31T03:31:59.578Z,15.80
2017-05-31T03:34:27.843Z,15.80
2017-05-31T03:36:56.049Z,15.90
2017-05-31T03:39:24.283Z,15.90
2017-05-31T03:41:52.500Z,15.90
2017-05-31T03:44:20.740Z,15.90
2017-05-31T03:46:48.953Z,15.80
2017-05-31T03:49:17.203Z,15.80
2017-05-31T03:51:45.463Z,15.80
2017-05-31T03:54:13.697Z,15.80
2017-05-31T03:56:41.916Z,15.90
2017-05-31T03:59:10.145Z,15.90
2017-05-31T04:01:38.472Z,15.90
2017-05-31T04:04:06.703Z,15.90
2017-05-31T04:06:34.932Z,16.00
2017-05-31T04:09:03.148Z,16.00
2017-05-31T04:11:31.362Z,16.00
2017-05-31T04:13:59.651Z,16.00
2017-05-31T04:16:27.862Z,16.00
2017-05-31T04:18:56.108Z,16.00
2017-05-31T04:21:24.358Z,16.10
2017-05-31T04:23:52.757Z,16.00
2017-05-31T04:26:21.003Z,16.00
2017-05-31T04:28:49.335Z,16.10
2017-05-31T04:31:17.588Z,16.00
2017-05-31T04:33:47.870Z,16.00
2017-05-31T04:36:16.171Z,16.10
2017-05-31T04:38:44.407Z,16.10
2017-05-31T04:41:12.618Z,16.00
2017-05-31T04:43:40.858Z,16.00
2017-05-31T04:46:09.064Z,15.90
2017-05-31T04:48:37.285Z,16.00
2017-05-31T04:51:05.521Z,15.90
2017-05-31T04:53:33.762Z,15.90
2017-05-31T04:56:01.987Z,15.90
2017-05-31T04:58:30.243Z,15.90
2017-05-31T05:00:58.474Z,16.00
2017-05-31T05:03:26.820Z,16.00
2017-05-31T05:05:55.059Z,16.00
2017-05-31T05:08:23.258Z,16.00
2017-05-31T05:10:51.503Z,16.00
2017-05-31T05:13:19.798Z,15.90
2017-05-31T05:15:48.073Z,16.00
2017-05-31T05:18:16.317Z,16.00
2017-05-31T05:20:44.578Z,16.10
2017-05-31T05:23:12.793Z,16.20
2017-05-31T05:25:41.182Z,16.10
2017-05-31T05:28:09.469Z,16.20
2017-05-31T05:30:37.845Z,16.20
2017-05-31T05:33:06.098Z,16.30
2017-05-31T05:35:34.353Z,16.30
2017-05-31T05:38:02.646Z,16.30
2017-05-31T05:40:30.935Z,16.30
2017-05-31T05:42:59.139Z,16.20
2017-05-31T05:45:27.419Z,16.10
2017-05-31T05:47:55.641Z,16.20
2017-05-31T05:50:23.981Z,16.20
2017-05-31T05:52:52.178Z,16.40
2017-05-31T05:55:20.482Z,16.40
2017-05-31T05:57:48.728Z,16.50
2017-05-31T06:00:17.218Z,16.60
2017-05-31T06:02:45.527Z,16.50
2017-05-31T06:05:13.758Z,16.50
2017-05-31T06:07:41.963Z,16.60
2017-05-31T06:10:10.340Z,16.60
2017-05-31T06:12:38.612Z,16.60
2017-05-31T06:15:06.845Z,16.80
2017-05-31T06:17:35.071Z,16.70
2017-05-31T06:20:03.351Z,16.60
2017-05-31T06:22:31.617Z,16.50
2017-05-31T06:24:59.857Z,16.60
2017-05-31T06:27:28.069Z,16.70
2017-05-31T06:29:56.407Z,16.80
2017-05-31T06:32:24.604Z,16.70
2017-05-31T06:34:53.083Z,16.80
2017-05-31T06:37:21.292Z,16.90
2017-05-31T06:39:49.532Z,16.80
2017-05-31T06:42:17.834Z,18.50
2017-05-31T06:44:46.038Z,17.00
2017-05-31T06:47:14.359Z,16.90
2017-05-31T06:49:42.583Z,16.90
2017-05-31T06:52:10.802Z,16.90
2017-05-31T06:54:39.019Z,16.90
2017-05-31T06:57:07.260Z,17.10
2017-05-31T06:59:35.487Z,17.10
2017-05-31T07:02:03.703Z,17.00
2017-05-31T07:04:31.903Z,17.00
2017-05-31T07:07:00.129Z,17.00
2017-05-31T07:09:28.331Z,17.10
2017-05-31T07:11:56.571Z,17.00
2017-05-31T07:14:24.910Z,17.00
2017-05-31T07:16:53.157Z,17.00
2017-05-31T07:19:21.525Z,17.00
2017-05-31T07:21:49.737Z,17.00
2017-05-31T07:24:18.015Z,17.10
2017-05-31T07:26:46.332Z,17.10
2017-05-31T07:29:14.530Z,16.80
2017-05-31T07:31:42.785Z,17.00
2017-05-31T07:34:11.093Z,17.00
2017-05-31T07:36:39.771Z,17.10
2017-05-31T07:39:07.991Z,17.20
2017-05-31T07:41:36.212Z,17.30
2017-05-31T07:44:04.426Z,17.50
2017-05-31T07:46:32.669Z,17.60
2017-05-31T07:49:00.948Z,17.60
2017-05-31T07:51:29.163Z,17.50
2017-05-31T07:53:57.410Z,17.40
2017-05-31T07:56:25.619Z,17.40
2017-05-31T07:58:53.835Z,17.40
2017-05-31T08:01:22.071Z,17.50
2017-05-31T08:03:50.271Z,17.80
2017-05-31T08:06:18.575Z,17.90
2017-05-31T08:08:46.803Z,18.10
2017-05-31T08:11:15.012Z,18.20
2017-05-31T08:13:43.283Z,18.10
2017-05-31T08:16:11.593Z,18.00
2017-05-31T08:18:39.863Z,17.90
2017-05-31T08:21:08.226Z,17.90
2017-05-31T08:26:27.864Z,17.90
2017-05-31T08:28:56.083Z,18.10
2017-05-31T08:31:24.311Z,18.10
2017-05-31T08:33:52.523Z,18.00
2017-05-31T08:36:20.856Z,17.90
2017-05-31T08:38:49.011Z,17.60
2017-05-31T08:41:17.235Z,17.60
2017-05-31T08:43:45.473Z,17.80
2017-05-31T08:46:13.702Z,17.80
2017-05-31T08:48:41.143Z,17.70
2017-05-31T08:51:08.596Z,17.80
2017-05-31T08:53:36.989Z,18.00
2017-05-31T08:56:05.229Z,18.00
2017-05-31T08:58:33.436Z,17.90
2017-05-31T09:01:01.668Z,18.10
2017-05-31T09:03:29.877Z,18.30
2017-05-31T09:05:58.104Z,18.20
2017-05-31T09:08:26.336Z,18.20
2017-05-31T09:10:54.536Z,18.20
2017-05-31T09:13:22.819Z,18.20
2017-05-31T09:15:51.063Z,18.10
2017-05-31T09:18:19.292Z,18.20
2017-05-31T09:20:47.625Z,18.30
2017-05-31T09:23:15.839Z,18.20
2017-05-31T09:25:44.059Z,18.30
2017-05-31T09:28:12.290Z,18.20
2017-05-31T09:30:40.510Z,17.90
2017-05-31T09:33:08.913Z,17.70
2017-05-31T09:35:37.278Z,17.80
2017-05-31T09:38:04.819Z,17.70
2017-05-31T09:40:33.016Z,17.90
2017-05-31T09:43:01.244Z,17.80
2017-05-31T09:45:29.455Z,17.90
2017-05-31T09:47:57.679Z,17.90
2017-05-31T09:50:25.904Z,17.90
2017-05-31T09:52:54.136Z,17.80
2017-05-31T09:55:21.797Z,17.80
2017-05-31T09:57:50.217Z,17.50
2017-05-31T10:00:18.419Z,17.60
2017-05-31T10:02:46.679Z,17.70
2017-05-31T10:05:14.940Z,17.90
2017-05-31T10:07:42.436Z,17.90
2017-05-31T10:10:10.635Z,18.00
2017-05-31T10:12:38.869Z,17.80
2017-05-31T10:15:07.125Z,17.60
2017-05-31T10:17:35.379Z,17.60
2017-05-31T10:20:02.834Z,17.50
2017-05-31T10:22:31.047Z,17.60
2017-05-31T10:24:59.267Z,17.50
2017-05-31T10:27:27.663Z,17.40
2017-05-31T10:29:56.152Z,17.60
2017-05-31T10:32:24.427Z,17.40
2017-05-31T10:34:52.795Z,17.30
2017-05-31T10:37:21.011Z,17.20
2017-05-31T10:39:49.217Z,17.20
2017-05-31T10:42:17.519Z,17.40
2017-05-31T10:44:46.081Z,17.30
2017-05-31T10:47:14.314Z,17.50
2017-05-31T10:49:42.525Z,17.40
2017-05-31T10:52:10.915Z,17.30
2017-05-31T10:54:39.119Z,17.40
2017-05-31T10:57:07.467Z,17.30
2017-05-31T10:59:35.707Z,17.50
2017-05-31T11:02:03.991Z,17.50
2017-05-31T11:04:32.315Z,17.50
2017-05-31T11:07:00.535Z,17.50
2017-05-31T11:09:28.756Z,17.70
2017-05-31T11:11:57.249Z,17.90
2017-05-31T11:14:25.447Z,17.60
2017-05-31T11:16:53.692Z,17.40
2017-05-31T11:19:21.908Z,17.30
2017-05-31T11:21:50.114Z,17.30
2017-05-31T11:24:18.411Z,17.30
2017-05-31T11:26:46.784Z,17.40
2017-05-31T11:29:15.012Z,17.40
2017-05-31T11:31:43.231Z,17.60
2017-05-31T11:34:11.446Z,17.50
2017-05-31T11:36:39.813Z,17.40
2017-05-31T11:39:08.071Z,17.40
2017-05-31T11:41:35.627Z,17.40
2017-05-31T11:44:03.895Z,17.70
2017-05-31T11:46:32.227Z,17.80
2017-05-31T11:49:00.503Z,17.50
2017-05-31T11:51:28.724Z,17.20
2017-05-31T11:53:57.103Z,17.10
2017-05-31T11:56:25.307Z,17.10
2017-05-31T11:58:53.517Z,17.20
2017-05-31T12:01:21.762Z,17.20
2017-05-31T12:03:50.015Z,17.20
2017-05-31T12:06:18.239Z,17.00
2017-05-31T12:08:46.471Z,17.10
2017-05-31T12:11:14.823Z,17.10
2017-05-31T12:13:43.236Z,17.30
2017-05-31T12:16:11.427Z,17.40
2017-05-31T12:18:39.671Z,17.40
2017-05-31T12:21:07.927Z,17.20
2017-05-31T12:23:36.212Z,17.10
2017-05-31T12:26:03.764Z,17.10
2017-05-31T12:28:32.038Z,17.20
2017-05-31T12:31:00.263Z,17.00
2017-05-31T12:33:28.481Z,17.00
2017-05-31T12:35:56.678Z,16.90
2017-05-31T12:38:24.923Z,17.00
2017-05-31T12:40:53.224Z,17.00
2017-05-31T12:43:21.475Z,16.90
2017-05-31T12:45:49.672Z,17.10
2017-05-31T12:48:17.943Z,16.80
2017-05-31T12:50:46.155Z,17.00
2017-05-31T12:53:14.355Z,17.10
2017-05-31T12:55:42.579Z,17.20
2017-05-31T12:58:10.910Z,17.10
2017-05-31T13:00:39.131Z,17.10
2017-05-31T13:03:07.335Z,17.00
2017-05-31T13:05:35.547Z,17.00
2017-05-31T13:08:03.759Z,16.90
2017-05-31T13:10:32.048Z,17.00
2017-05-31T13:13:00.390Z,17.10
2017-05-31T13:15:28.651Z,17.20
2017-05-31T13:17:57.013Z,17.20
2017-05-31T13:20:25.223Z,17.20
2017-05-31T13:22:53.493Z,17.00
2017-05-31T13:25:21.731Z,16.80
2017-05-31T13:27:49.999Z,16.80
2017-05-31T13:30:18.218Z,16.80
2017-05-31T13:32:46.808Z,16.70
2017-05-31T13:35:15.011Z,16.70
2017-05-31T13:37:43.256Z,16.80
2017-05-31T13:40:11.508Z,16.70
2017-05-31T13:42:39.791Z,16.50
2017-05-31T13:45:08.139Z,16.70
2017-05-31T13:47:36.319Z,16.80
2017-05-31T13:50:04.615Z,17.00
2017-05-31T13:52:32.884Z,17.10
2017-05-31T13:55:01.137Z,17.20
2017-05-31T13:57:29.356Z,16.90
2017-05-31T13:59:57.607Z,16.70
2017-05-31T14:02:25.969Z,16.80
2017-05-31T14:04:54.205Z,16.90
2017-05-31T14:07:22.405Z,17.20
2017-05-31T14:09:50.623Z,17.20
2017-05-31T14:12:18.886Z,17.00
2017-05-31T14:14:47.095Z,16.70
2017-05-31T14:17:15.343Z,16.90
2017-05-31T14:19:43.733Z,17.00
2017-05-31T14:22:12.001Z,17.10
2017-05-31T14:24:40.230Z,16.80
2017-05-31T14:27:08.436Z,16.70
2017-05-31T14:29:36.690Z,16.90
2017-05-31T14:32:04.901Z,16.80
2017-05-31T14:34:33.213Z,16.70
2017-05-31T14:37:01.618Z,16.70
2017-05-31T14:39:29.837Z,17.00
2017-05-31T14:41:58.044Z,17.10
2017-05-31T14:44:26.247Z,17.00
2017-05-31T14:46:54.649Z,16.70
2017-05-31T14:49:22.859Z,16.70
2017-05-31T14:51:51.087Z,16.80
2017-05-31T14:54:19.363Z,16.80
2017-05-31T14:56:47.587Z,16.80
2017-05-31T14:59:15.802Z,16.60
2017-05-31T15:01:44.159Z,16.60
2017-05-31T15:04:12.467Z,16.80
2017-05-31T15:06:40.730Z,16.80
2017-05-31T15:09:08.939Z,16.80
2017-05-31T15:11:37.177Z,16.60
2017-05-31T15:14:05.380Z,17.00
2017-05-31T15:16:33.743Z,17.60
2017-05-31T15:19:02.002Z,17.90
2017-05-31T15:21:30.276Z,17.90
2017-05-31T15:23:58.491Z,17.50
2017-05-31T15:26:26.731Z,17.70
2017-05-31T15:28:55.031Z,18.10
2017-05-31T15:31:23.392Z,18.20
2017-05-31T15:33:51.689Z,18.10
2017-05-31T15:36:19.954Z,18.40
2017-05-31T15:38:48.198Z,18.30
2017-05-31T15:41:16.435Z,18.00
2017-05-31T15:43:44.766Z,17.90
2017-05-31T15:46:12.204Z,17.90
2017-05-31T15:48:40.499Z,17.50
2017-05-31T15:51:08.721Z,17.30
2017-05-31T15:53:36.974Z,17.60
2017-05-31T15:56:05.213Z,18.00
2017-05-31T15:58:33.427Z,18.30
2017-05-31T16:01:01.668Z,18.00
2017-05-31T16:03:29.884Z,18.10
2017-05-31T16:05:58.134Z,18.30
2017-05-31T16:08:26.510Z,18.10
2017-05-31T16:10:54.068Z,18.00
2017-05-31T16:13:22.343Z,18.10
2017-05-31T16:15:50.873Z,18.50
2017-05-31T16:18:19.088Z,18.40
2017-05-31T16:20:47.379Z,18.40
2017-05-31T16:23:15.578Z,18.10
2017-05-31T16:25:43.823Z,18.00
2017-05-31T16:28:12.088Z,17.40
2017-05-31T16:30:40.343Z,16.60
2017-05-31T16:33:08.614Z,16.40
2017-05-31T16:35:36.934Z,16.20
2017-05-31T16:38:05.119Z,16.20
2017-05-31T16:40:33.473Z,16.10
2017-05-31T16:43:01.682Z,16.00
2017-05-31T16:45:29.916Z,16.00
2017-05-31T16:47:58.275Z,15.70
2017-05-31T16:50:26.507Z,15.50
2017-05-31T16:52:54.745Z,15.60
2017-05-31T16:55:22.947Z,15.80
2017-05-31T16:57:51.239Z,16.00
2017-05-31T17:00:19.475Z,15.90
2017-05-31T17:02:47.676Z,15.90
2017-05-31T17:05:15.886Z,16.00
2017-05-31T17:07:44.115Z,16.00
2017-05-31T17:10:12.339Z,15.80
2017-05-31T17:12:40.656Z,15.90
2017-05-31T17:15:08.953Z,15.70
2017-05-31T17:17:37.184Z,15.50
2017-05-31T17:20:05.781Z,15.60
2017-05-31T17:22:33.999Z,15.70
2017-05-31T17:25:02.323Z,16.20
2017-05-31T17:27:30.609Z,16.50
2017-05-31T17:29:58.871Z,16.30
2017-05-31T17:32:27.083Z,16.40
2017-05-31T17:34:55.311Z,16.30
2017-05-31T17:37:23.607Z,16.20
2017-05-31T17:39:51.950Z,15.80
2017-05-31T17:42:20.163Z,15.50
2017-05-31T17:44:48.371Z,15.20
2017-05-31T17:47:16.750Z,15.20
2017-05-31T17:49:44.971Z,15.30
2017-05-31T17:52:13.246Z,15.30
2017-05-31T17:54:41.551Z,15.50
2017-05-31T17:57:09.772Z,15.40
2017-05-31T17:59:38.119Z,15.40
2017-05-31T18:02:06.355Z,15.30
2017-05-31T18:04:34.634Z,15.30
2017-05-31T18:07:02.887Z,15.20
2017-05-31T18:09:31.103Z,15.10
2017-05-31T18:11:59.469Z,15.00
2017-05-31T18:14:27.736Z,14.90
2017-05-31T18:16:55.971Z,14.80
2017-05-31T18:19:24.184Z,14.70
2017-05-31T18:21:52.394Z,14.70
2017-05-31T18:24:20.604Z,14.70
2017-05-31T18:26:48.807Z,14.50
2017-05-31T18:29:17.023Z,14.50
2017-05-31T18:31:45.370Z,14.40
2017-05-31T18:34:13.571Z,14.40
2017-05-31T18:36:41.776Z,14.30
2017-05-31T18:39:09.990Z,14.20
2017-05-31T18:41:38.215Z,14.30
2017-05-31T18:44:06.503Z,14.30
2017-05-31T18:46:34.703Z,14.30
2017-05-31T18:49:03.151Z,14.20
2017-05-31T18:51:31.347Z,14.30
2017-05-31T18:53:59.567Z,14.20
2017-05-31T18:56:27.825Z,14.00
2017-05-31T18:58:56.082Z,13.90
2017-05-31T19:01:24.400Z,13.80
2017-05-31T19:03:52.636Z,13.80
2017-05-31T19:06:20.839Z,13.70
2017-05-31T19:08:49.063Z,13.70
2017-05-31T19:11:17.296Z,13.60
2017-05-31T19:13:45.541Z,13.50
2017-05-31T19:16:13.751Z,13.50
2017-05-31T19:18:42.033Z,12.10
2017-05-31T19:21:10.243Z,13.50
2017-05-31T19:23:38.474Z,13.40
2017-05-31T19:26:06.711Z,13.40
2017-05-31T19:28:34.936Z,13.40
2017-05-31T19:31:03.161Z,13.30
2017-05-31T19:33:31.367Z,13.30
2017-05-31T19:35:59.585Z,13.20
2017-05-31T19:38:27.887Z,13.20
2017-05-31T19:40:56.086Z,13.20
2017-05-31T19:43:24.312Z,13.10
2017-05-31T19:45:52.568Z,13.00
2017-05-31T19:48:20.867Z,12.90
2017-05-31T19:50:49.074Z,12.90
2017-05-31T19:53:17.327Z,12.90
2017-05-31T19:55:45.599Z,12.90
2017-05-31T19:58:14.768Z,12.80
2017-05-31T20:00:42.983Z,12.80
2017-05-31T20:03:11.197Z,12.70
2017-05-31T20:05:39.427Z,12.70
2017-05-31T20:08:07.785Z,12.70
2017-05-31T20:10:35.999Z,12.70
2017-05-31T20:13:04.214Z,12.60
2017-05-31T20:15:32.448Z,12.60
2017-05-31T20:18:00.787Z,12.50
2017-05-31T20:20:29.034Z,12.50
2017-05-31T20:22:57.298Z,12.50
2017-05-31T20:25:25.555Z,12.40
2017-05-31T20:27:53.755Z,12.40
2017-05-31T20:30:21.978Z,12.40
2017-05-31T20:32:50.203Z,12.40
2017-05-31T20:35:18.507Z,12.40
2017-05-31T20:37:46.723Z,12.40
2017-05-31T20:40:14.935Z,12.30
2017-05-31T20:42:43.151Z,12.30
2017-05-31T20:45:11.371Z,12.20
2017-05-31T20:47:40.372Z,12.20
2017-05-31T20:50:09.269Z,12.20
2017-05-31T20:52:37.586Z,12.20
2017-05-31T20:55:05.806Z,12.10
2017-05-31T20:57:34.119Z,12.20
2017-05-31T21:00:02.343Z,12.10
2017-05-31T21:02:30.601Z,12.10
2017-05-31T21:04:58.841Z,12.00
2017-05-31T21:07:27.069Z,12.10
2017-05-31T21:09:55.304Z,12.00
2017-05-31T21:12:23.604Z,12.00
2017-05-31T21:14:52.213Z,12.00
2017-05-31T21:17:20.500Z,11.90
2017-05-31T21:19:48.737Z,11.90
2017-05-31T21:22:16.949Z,11.80
2017-05-31T21:24:45.164Z,11.80
2017-05-31T21:27:13.382Z,11.80
2017-05-31T21:29:41.613Z,11.70
2017-05-31T21:32:09.877Z,11.70
2017-05-31T21:34:38.144Z,11.70
2017-05-31T21:37:06.355Z,11.70
2017-05-31T21:39:34.596Z,11.70
2017-05-31T21:42:03.765Z,11.60
2017-05-31T21:44:32.078Z,11.60
2017-05-31T21:47:00.314Z,11.60
2017-05-31T21:49:28.543Z,11.60
2017-05-31T21:51:56.747Z,11.60
2017-05-31T21:54:25.176Z,11.50
2017-05-31T21:56:53.428Z,11.50
2017-05-31T21:59:21.762Z,11.50
2017-05-31T22:01:50.029Z,11.50
2017-05-31T22:04:18.283Z,11.40
2017-05-31T22:06:46.484Z,11.40
2017-05-31T22:09:14.695Z,11.40
2017-05-31T22:11:42.912Z,11.40
2017-05-31T22:14:11.138Z,11.30
2017-05-31T22:16:39.445Z,11.30
2017-05-31T22:19:07.740Z,11.30
2017-05-31T22:21:35.961Z,11.20
2017-05-31T22:24:04.203Z,11.30
2017-05-31T22:26:32.461Z,11.30
2017-05-31T22:29:00.662Z,11.20
2017-05-31T22:31:28.909Z,11.20
2017-05-31T22:33:57.142Z,11.20
2017-05-31T22:36:25.435Z,11.10
2017-05-31T22:38:53.647Z,11.10
2017-05-31T22:41:21.867Z,11.10
2017-05-31T22:43:50.159Z,11.10
2017-05-31T22:46:18.377Z,11.00
2017-05-31T22:48:46.580Z,11.10
2017-05-31T22:51:14.798Z,11.00
2017-05-31T22:53:43.073Z,11.00
2017-05-31T22:56:11.303Z,11.00
2017-05-31T22:58:39.507Z,11.00
2017-05-31T23:01:07.743Z,10.90
2017-05-31T23:03:36.062Z,10.90
2017-05-31T23:06:04.339Z,10.90
2017-05-31T23:08:32.559Z,10.90
2017-05-31T23:11:00.791Z,10.90
2017-05-31T23:13:29.022Z,10.90
2017-05-31T23:15:57.242Z,10.90
2017-05-31T23:18:25.471Z,10.80
2017-05-31T23:20:53.683Z,10.80
2017-05-31T23:23:21.951Z,10.80
2017-05-31T23:25:50.176Z,10.80
2017-05-31T23:28:18.383Z,10.80
2017-05-31T23:30:46.607Z,10.80
2017-05-31T23:33:14.833Z,10.80
2017-05-31T23:35:43.127Z,10.70
2017-05-31T23:38:11.346Z,10.70
2017-05-31T23:40:39.547Z,10.70
2017-05-31T23:43:07.774Z,10.70
2017-05-31T23:45:35.983Z,10.60
2017-05-31T23:48:04.223Z,10.60
2017-05-31T23:50:32.484Z,10.60
2017-05-31T23:53:00.707Z,10.60
2017-05-31T23:55:29.015Z,10.60
2017-05-31T23:57:58.178Z,10.60
